Panna Maria, TX (78144)

12:09 PM CDT on October 02, 2014 (GMT -0500)
Karnes County | Change Station
CLOSE
Current Station
Personal Weather Station
Location: Karnes City, TX
Elevation: 381 ft
Nearby Weather Stations

Elev 381 ft 28.88 °N, 97.86 °W | Updated 24 seconds ago

Mostly Cloudy
Mostly Cloudy
88.2 °F
Feels Like 99 °F
N
12.1
Wind Variable Wind from NW
Gusts 23.0 mph

Today
High -- | Low -- °F
--% Chance of Precip.
Yesterday
High -- | Low -- °F
Precip. -- in
7:25 AM 7:16 PM
First Quarter, 60% visible
Pressure 29.89 in
Visibility 10.0 miles
Clouds Mostly Cloudy 3100 ft
Mostly Cloudy 3500 ft
Heat Index 99 °F
Dew Point 75 °F
Humidity 66%
Rainfall 0.00 in
Snow Depth Not available.
UV 12.1 out of 12
Pollen 8.70 out of 12
Air Quality Not available.
Flu Activity Not available.
METAR KPEZ 021700Z AUTO 18010G15KT 10SM BKN031 BKN035 31/22 A2989 RMK AO2 T03080217

More Conditions Fewer Conditions

Pressure 29.89 in
Visibility 10.0 miles
Clouds Mostly Cloudy 3100 ft
Mostly Cloudy 3500 ft
Heat Index 99 °F
Dew Point 75 °F
Humidity 66%
Rainfall 0.00 in
Snow Depth Not available.
UV 12.1 out of 12
Pollen 8.70 out of 12
Air Quality Not available.
Flu Activity Not available.
METAR KPEZ 021700Z AUTO 18010G15KT 10SM BKN031 BKN035 31/22 A2989 RMK AO2 T03080217

More Conditions Fewer Conditions

10-Day Weather Forecast

Almanac

Astronomy

Oct. 02, 2014 Rise Set
Actual Time 7:25 AM CDT 7:16 PM CDT
Civil Twilight 7:01 AM CDT 7:39 PM CDT
Nautical Twilight 6:34 AM CDT 8:07 PM CDT
Astronomical Twilight 6:06 AM CDT 8:34 PM CDT
Moon 2:59 PM CDT 1:09 AM CDT
Length of Visible Light 12h 38m
Length of Day
11h 50m
Tomorrow will be 1m 43s shorter.
First Quarter, 60% of the Moon is Illuminated
Today
First Quarter
Oct 8
Full
Oct 15
Last Quarter
Oct 23
New
Oct 30
First Quarter

Today's Extremes

State Highs State Lows

Community

WunderPhotos

Upload Photos

1,758,298 photos uploaded!

Nearby

Snow Depth

Station Depth Elevation
No new snow has been reported.

Earthquake Activity

City Distance Mag. Time & Date
No recent earthquake activity has been reported nearby.
Minimum magnitude displayed is 2.5.

Coastal Water Temperatures

Place Temperature
No Stations Reporting

Nearby Weather Stations